Terminal Aerodrome Forecast
Issued by NWS

Home | Current Version | Previous Version | Text Only | Print | Product List | Glossary On
Versions: 1 2 3 4 5 6 7 8 9 10 11 12 13 14 15
000
FTUS43 KIWX 311100
TAFSBN
TAF
KSBN 311120Z 3112/0112 32014G26KT 5SM -RA BR OVC020
      TEMPO 3114/3118 3SM RAPLSN BR BKN008 OVC015
     FM311800 34020G33KT P6SM -RASN OVC020
     FM010300 36017KT P6SM BKN020
     FM010600 36013KT P6SM SCT020=

USA.gov is the U.S. government's official web portal to all federal, state and local government web resources and services.